sensor_id;sensor_type;location;lat;lon;timestamp;temperature;humidity
336;DHT22;156;48.738;9.228;2022-10-26T00:01:04;13.00;61.10
336;DHT22;156;48.738;9.228;2022-10-26T00:03:33;13.00;59.60
336;DHT22;156;48.738;9.228;2022-10-26T00:06:05;13.00;59.20
336;DHT22;156;48.738;9.228;2022-10-26T00:08:32;13.00;57.80
336;DHT22;156;48.738;9.228;2022-10-26T00:10:59;13.00;56.00
336;DHT22;156;48.738;9.228;2022-10-26T00:13:28;13.00;56.10
336;DHT22;156;48.738;9.228;2022-10-26T00:15:55;13.00;55.50
336;DHT22;156;48.738;9.228;2022-10-26T00:18:22;12.90;56.10
336;DHT22;156;48.738;9.228;2022-10-26T00:20:49;12.90;59.20
336;DHT22;156;48.738;9.228;2022-10-26T00:23:16;12.80;61.10
336;DHT22;156;48.738;9.228;2022-10-26T00:25:43;12.90;61.20
336;DHT22;156;48.738;9.228;2022-10-26T00:28:10;12.90;62.00
336;DHT22;156;48.738;9.228;2022-10-26T00:30:39;12.90;62.70
336;DHT22;156;48.738;9.228;2022-10-26T00:33:09;12.90;62.20
336;DHT22;156;48.738;9.228;2022-10-26T00:35:38;12.90;61.20
336;DHT22;156;48.738;9.228;2022-10-26T00:38:05;12.90;61.20
336;DHT22;156;48.738;9.228;2022-10-26T00:40:32;13.00;61.90
336;DHT22;156;48.738;9.228;2022-10-26T00:42:58;13.00;58.50
336;DHT22;156;48.738;9.228;2022-10-26T00:45:28;13.00;57.30
336;DHT22;156;48.738;9.228;2022-10-26T00:47:59;13.00;57.30
336;DHT22;156;48.738;9.228;2022-10-26T00:50:30;13.10;58.00
336;DHT22;156;48.738;9.228;2022-10-26T00:52:58;13.20;52.20
336;DHT22;156;48.738;9.228;2022-10-26T00:55:31;13.20;50.20
336;DHT22;156;48.738;9.228;2022-10-26T00:58:01;13.10;48.90
336;DHT22;156;48.738;9.228;2022-10-26T01:00:29;13.00;53.70
336;DHT22;156;48.738;9.228;2022-10-26T01:03:01;13.00;54.80
336;DHT22;156;48.738;9.228;2022-10-26T01:05:31;12.90;60.40
336;DHT22;156;48.738;9.228;2022-10-26T01:07:59;12.90;62.30
336;DHT22;156;48.738;9.228;2022-10-26T01:10:28;12.90;64.00
336;DHT22;156;48.738;9.228;2022-10-26T01:12:56;12.90;62.10
336;DHT22;156;48.738;9.228;2022-10-26T01:15:29;12.90;60.40
336;DHT22;156;48.738;9.228;2022-10-26T01:18:07;13.00;58.00
336;DHT22;156;48.738;9.228;2022-10-26T01:23:50;13.10;51.50
336;DHT22;156;48.738;9.228;2022-10-26T01:26:37;13.20;49.30
336;DHT22;156;48.738;9.228;2022-10-26T01:29:30;13.30;46.80
336;DHT22;156;48.738;9.228;2022-10-26T01:32:07;13.40;47.40
336;DHT22;156;48.738;9.228;2022-10-26T01:34:37;13.40;45.80
336;DHT22;156;48.738;9.228;2022-10-26T01:37:11;13.50;44.80
336;DHT22;156;48.738;9.228;2022-10-26T01:39:43;13.50;43.40
336;DHT22;156;48.738;9.228;2022-10-26T01:42:12;13.50;43.50
336;DHT22;156;48.738;9.228;2022-10-26T01:44:44;13.60;44.10
336;DHT22;156;48.738;9.228;2022-10-26T01:47:14;13.60;44.50
336;DHT22;156;48.738;9.228;2022-10-26T01:49:46;13.60;46.60
336;DHT22;156;48.738;9.228;2022-10-26T01:52:14;13.60;47.10
336;DHT22;156;48.738;9.228;2022-10-26T01:54:41;13.60;38.80
336;DHT22;156;48.738;9.228;2022-10-26T01:57:10;13.60;37.40
336;DHT22;156;48.738;9.228;2022-10-26T01:59:52;13.70;35.30
336;DHT22;156;48.738;9.228;2022-10-26T02:02:44;13.60;40.90
336;DHT22;156;48.738;9.228;2022-10-26T02:05:34;13.50;40.80
336;DHT22;156;48.738;9.228;2022-10-26T02:08:29;13.50;39.30
336;DHT22;156;48.738;9.228;2022-10-26T02:11:09;13.50;40.80
336;DHT22;156;48.738;9.228;2022-10-26T02:13:44;13.60;37.50
336;DHT22;156;48.738;9.228;2022-10-26T02:16:18;13.50;42.10
336;DHT22;156;48.738;9.228;2022-10-26T02:18:53;13.50;47.10
336;DHT22;156;48.738;9.228;2022-10-26T02:21:26;13.40;59.10
336;DHT22;156;48.738;9.228;2022-10-26T02:23:57;13.40;67.00
336;DHT22;156;48.738;9.228;2022-10-26T02:26:27;13.40;69.20
336;DHT22;156;48.738;9.228;2022-10-26T02:28:58;13.30;65.60
336;DHT22;156;48.738;9.228;2022-10-26T02:31:27;13.30;65.50
336;DHT22;156;48.738;9.228;2022-10-26T02:34:00;13.20;66.10
336;DHT22;156;48.738;9.228;2022-10-26T02:36:29;13.10;68.60
336;DHT22;156;48.738;9.228;2022-10-26T02:39:00;13.00;70.70
336;DHT22;156;48.738;9.228;2022-10-26T02:41:30;12.90;73.90
336;DHT22;156;48.738;9.228;2022-10-26T02:44:03;12.90;78.90
336;DHT22;156;48.738;9.228;2022-10-26T02:46:31;12.80;86.90
336;DHT22;156;48.738;9.228;2022-10-26T02:49:00;12.70;94.20
336;DHT22;156;48.738;9.228;2022-10-26T02:51:33;12.60;94.60
336;DHT22;156;48.738;9.228;2022-10-26T02:54:10;12.70;95.80
336;DHT22;156;48.738;9.228;2022-10-26T02:56:42;12.70;94.80
336;DHT22;156;48.738;9.228;2022-10-26T02:59:12;12.70;94.10
336;DHT22;156;48.738;9.228;2022-10-26T03:01:41;12.70;93.00
336;DHT22;156;48.738;9.228;2022-10-26T03:04:09;12.70;91.30
336;DHT22;156;48.738;9.228;2022-10-26T03:06:36;12.80;91.40
336;DHT22;156;48.738;9.228;2022-10-26T03:09:03;12.70;86.90
336;DHT22;156;48.738;9.228;2022-10-26T03:11:30;12.70;89.90
336;DHT22;156;48.738;9.228;2022-10-26T03:13:57;12.60;93.80
336;DHT22;156;48.738;9.228;2022-10-26T03:16:24;12.60;95.00
336;DHT22;156;48.738;9.228;2022-10-26T03:18:51;12.50;97.60
336;DHT22;156;48.738;9.228;2022-10-26T03:21:19;12.40;98.00
336;DHT22;156;48.738;9.228;2022-10-26T03:23:46;12.40;99.20
336;DHT22;156;48.738;9.228;2022-10-26T03:26:15;12.30;99.90
336;DHT22;156;48.738;9.228;2022-10-26T03:28:43;12.20;99.90
336;DHT22;156;48.738;9.228;2022-10-26T03:31:10;12.10;99.90
336;DHT22;156;48.738;9.228;2022-10-26T03:33:36;12.30;99.90
336;DHT22;156;48.738;9.228;2022-10-26T03:36:04;12.40;99.90
336;DHT22;156;48.738;9.228;2022-10-26T03:38:32;12.60;98.80
336;DHT22;156;48.738;9.228;2022-10-26T03:40:59;12.60;99.20
336;DHT22;156;48.738;9.228;2022-10-26T03:43:26;12.70;98.70
336;DHT22;156;48.738;9.228;2022-10-26T03:45:53;12.80;98.80
336;DHT22;156;48.738;9.228;2022-10-26T03:48:20;12.90;96.20
336;DHT22;156;48.738;9.228;2022-10-26T03:50:47;13.00;94.50
336;DHT22;156;48.738;9.228;2022-10-26T03:53:13;13.10;94.30
336;DHT22;156;48.738;9.228;2022-10-26T03:55:44;13.10;93.30
336;DHT22;156;48.738;9.228;2022-10-26T03:58:11;13.10;93.00
336;DHT22;156;48.738;9.228;2022-10-26T04:00:38;13.10;90.80
336;DHT22;156;48.738;9.228;2022-10-26T04:03:04;13.10;91.20
336;DHT22;156;48.738;9.228;2022-10-26T04:05:31;13.30;88.60
336;DHT22;156;48.738;9.228;2022-10-26T04:08:00;13.30;86.40
336;DHT22;156;48.738;9.228;2022-10-26T04:10:28;13.30;85.30
336;DHT22;156;48.738;9.228;2022-10-26T04:12:57;13.40;84.80
336;DHT22;156;48.738;9.228;2022-10-26T04:15:26;13.40;82.80
336;DHT22;156;48.738;9.228;2022-10-26T04:17:56;13.30;81.00
336;DHT22;156;48.738;9.228;2022-10-26T04:20:24;13.30;82.40
336;DHT22;156;48.738;9.228;2022-10-26T04:22:58;13.40;80.30
336;DHT22;156;48.738;9.228;2022-10-26T04:25:26;13.50;79.80
336;DHT22;156;48.738;9.228;2022-10-26T04:27:53;13.30;89.90
336;DHT22;156;48.738;9.228;2022-10-26T04:30:22;13.30;90.10
336;DHT22;156;48.738;9.228;2022-10-26T04:32:49;13.30;92.40
336;DHT22;156;48.738;9.228;2022-10-26T04:35:16;13.30;94.40
336;DHT22;156;48.738;9.228;2022-10-26T04:37:43;13.30;96.40
336;DHT22;156;48.738;9.228;2022-10-26T04:40:10;13.30;97.10
336;DHT22;156;48.738;9.228;2022-10-26T04:42:41;13.20;96.00
336;DHT22;156;48.738;9.228;2022-10-26T04:45:08;13.10;98.20
336;DHT22;156;48.738;9.228;2022-10-26T04:47:37;13.00;99.90
336;DHT22;156;48.738;9.228;2022-10-26T04:50:05;13.00;99.90
336;DHT22;156;48.738;9.228;2022-10-26T04:52:32;13.00;99.90
336;DHT22;156;48.738;9.228;2022-10-26T04:54:59;13.00;99.90
336;DHT22;156;48.738;9.228;2022-10-26T04:57:30;13.10;99.90
336;DHT22;156;48.738;9.228;2022-10-26T04:59:57;13.20;99.90
336;DHT22;156;48.738;9.228;2022-10-26T05:02:24;13.20;99.90
336;DHT22;156;48.738;9.228;2022-10-26T05:04:53;13.20;99.90
336;DHT22;156;48.738;9.228;2022-10-26T05:07:20;13.20;99.90
336;DHT22;156;48.738;9.228;2022-10-26T05:09:47;13.20;99.90
336;DHT22;156;48.738;9.228;2022-10-26T05:12:13;13.20;99.90
336;DHT22;156;48.738;9.228;2022-10-26T05:14:40;13.20;99.90
336;DHT22;156;48.738;9.228;2022-10-26T05:17:07;13.20;99.90
336;DHT22;156;48.738;9.228;2022-10-26T05:19:34;13.20;99.90
336;DHT22;156;48.738;9.228;2022-10-26T05:22:02;13.20;99.90
336;DHT22;156;48.738;9.228;2022-10-26T05:24:29;13.20;99.90
336;DHT22;156;48.738;9.228;2022-10-26T05:26:56;13.10;99.90
336;DHT22;156;48.738;9.228;2022-10-26T05:29:23;13.20;99.90
336;DHT22;156;48.738;9.228;2022-10-26T05:31:50;13.20;99.90
336;DHT22;156;48.738;9.228;2022-10-26T05:34:17;13.20;99.90
336;DHT22;156;48.738;9.228;2022-10-26T05:36:44;13.20;99.90
336;DHT22;156;48.738;9.228;2022-10-26T05:39:12;13.20;99.90
336;DHT22;156;48.738;9.228;2022-10-26T05:41:39;13.30;99.90
336;DHT22;156;48.738;9.228;2022-10-26T05:44:06;13.30;99.90
336;DHT22;156;48.738;9.228;2022-10-26T05:46:33;13.40;99.90
336;DHT22;156;48.738;9.228;2022-10-26T05:49:00;13.40;99.90
336;DHT22;156;48.738;9.228;2022-10-26T05:51:27;13.40;99.90
336;DHT22;156;48.738;9.228;2022-10-26T05:53:53;13.50;99.20
336;DHT22;156;48.738;9.228;2022-10-26T05:56:32;13.50;98.50
336;DHT22;156;48.738;9.228;2022-10-26T05:59:00;13.50;97.40
336;DHT22;156;48.738;9.228;2022-10-26T06:01:34;13.50;98.40
336;DHT22;156;48.738;9.228;2022-10-26T06:04:16;13.50;96.10
336;DHT22;156;48.738;9.228;2022-10-26T06:06:50;13.60;95.60
336;DHT22;156;48.738;9.228;2022-10-26T06:09:19;13.60;95.20
336;DHT22;156;48.738;9.228;2022-10-26T06:11:48;13.70;92.20
336;DHT22;156;48.738;9.228;2022-10-26T06:14:15;13.70;92.40
336;DHT22;156;48.738;9.228;2022-10-26T06:16:51;13.80;92.70
336;DHT22;156;48.738;9.228;2022-10-26T06:19:29;13.80;91.00
336;DHT22;156;48.738;9.228;2022-10-26T06:22:08;13.80;90.30
336;DHT22;156;48.738;9.228;2022-10-26T06:24:42;13.80;89.90
336;DHT22;156;48.738;9.228;2022-10-26T06:27:25;13.80;85.90
336;DHT22;156;48.738;9.228;2022-10-26T06:29:59;13.90;84.70
336;DHT22;156;48.738;9.228;2022-10-26T06:32:26;13.90;85.00
336;DHT22;156;48.738;9.228;2022-10-26T06:35:00;14.00;84.70
336;DHT22;156;48.738;9.228;2022-10-26T06:37:28;14.00;85.00
336;DHT22;156;48.738;9.228;2022-10-26T06:39:56;14.00;85.20
336;DHT22;156;48.738;9.228;2022-10-26T06:42:25;14.00;90.30
336;DHT22;156;48.738;9.228;2022-10-26T06:44:53;13.90;88.00
336;DHT22;156;48.738;9.228;2022-10-26T06:47:23;14.00;88.70
336;DHT22;156;48.738;9.228;2022-10-26T06:50:00;13.90;90.90
336;DHT22;156;48.738;9.228;2022-10-26T06:52:33;13.90;91.60
336;DHT22;156;48.738;9.228;2022-10-26T06:55:01;13.90;91.00
336;DHT22;156;48.738;9.228;2022-10-26T06:57:34;14.00;91.20
336;DHT22;156;48.738;9.228;2022-10-26T07:00:04;14.00;91.10
336;DHT22;156;48.738;9.228;2022-10-26T07:02:32;14.00;91.20
336;DHT22;156;48.738;9.228;2022-10-26T07:04:58;14.00;90.60
336;DHT22;156;48.738;9.228;2022-10-26T07:07:27;14.00;90.30
336;DHT22;156;48.738;9.228;2022-10-26T07:09:55;14.10;89.70
336;DHT22;156;48.738;9.228;2022-10-26T07:12:22;14.20;88.70
336;DHT22;156;48.738;9.228;2022-10-26T07:14:50;14.20;83.90
336;DHT22;156;48.738;9.228;2022-10-26T07:17:17;14.30;84.00
336;DHT22;156;48.738;9.228;2022-10-26T07:19:44;14.30;81.60
336;DHT22;156;48.738;9.228;2022-10-26T07:22:11;14.30;83.20
336;DHT22;156;48.738;9.228;2022-10-26T07:24:38;14.40;79.90
336;DHT22;156;48.738;9.228;2022-10-26T07:27:05;14.40;76.80
336;DHT22;156;48.738;9.228;2022-10-26T07:29:32;14.50;75.50
336;DHT22;156;48.738;9.228;2022-10-26T07:32:01;14.50;71.40
336;DHT22;156;48.738;9.228;2022-10-26T07:34:28;14.60;72.00
336;DHT22;156;48.738;9.228;2022-10-26T07:36:55;14.70;67.30
336;DHT22;156;48.738;9.228;2022-10-26T07:39:21;14.70;66.90
336;DHT22;156;48.738;9.228;2022-10-26T07:41:48;14.70;66.50
336;DHT22;156;48.738;9.228;2022-10-26T07:44:15;14.80;65.20
336;DHT22;156;48.738;9.228;2022-10-26T07:46:42;14.80;62.30
336;DHT22;156;48.738;9.228;2022-10-26T07:49:10;14.80;62.20
336;DHT22;156;48.738;9.228;2022-10-26T07:51:37;14.80;62.60
336;DHT22;156;48.738;9.228;2022-10-26T07:54:04;14.90;60.70
336;DHT22;156;48.738;9.228;2022-10-26T07:56:31;14.90;59.90
336;DHT22;156;48.738;9.228;2022-10-26T07:58:58;14.90;58.60
336;DHT22;156;48.738;9.228;2022-10-26T08:01:25;15.00;58.20
336;DHT22;156;48.738;9.228;2022-10-26T08:03:51;15.00;58.10
336;DHT22;156;48.738;9.228;2022-10-26T08:06:20;15.00;56.30
336;DHT22;156;48.738;9.228;2022-10-26T08:08:47;15.10;56.60
336;DHT22;156;48.738;9.228;2022-10-26T08:11:15;15.10;57.90
336;DHT22;156;48.738;9.228;2022-10-26T08:13:42;15.20;53.30
336;DHT22;156;48.738;9.228;2022-10-26T08:16:09;15.20;53.30
336;DHT22;156;48.738;9.228;2022-10-26T08:18:35;15.20;55.60
336;DHT22;156;48.738;9.228;2022-10-26T08:21:04;15.20;56.30
336;DHT22;156;48.738;9.228;2022-10-26T08:23:33;15.10;56.60
336;DHT22;156;48.738;9.228;2022-10-26T08:26:00;15.20;55.40
336;DHT22;156;48.738;9.228;2022-10-26T08:28:28;15.20;59.70
336;DHT22;156;48.738;9.228;2022-10-26T08:30:55;15.20;56.70
336;DHT22;156;48.738;9.228;2022-10-26T08:33:22;15.30;57.60
336;DHT22;156;48.738;9.228;2022-10-26T08:35:54;15.40;56.90
336;DHT22;156;48.738;9.228;2022-10-26T08:38:21;15.30;56.60
336;DHT22;156;48.738;9.228;2022-10-26T08:40:50;15.30;58.50
336;DHT22;156;48.738;9.228;2022-10-26T08:43:25;15.30;57.50
336;DHT22;156;48.738;9.228;2022-10-26T08:45:57;15.40;58.30
336;DHT22;156;48.738;9.228;2022-10-26T08:48:28;15.40;60.30
336;DHT22;156;48.738;9.228;2022-10-26T08:51:01;15.40;58.20
336;DHT22;156;48.738;9.228;2022-10-26T08:53:32;15.40;60.20
336;DHT22;156;48.738;9.228;2022-10-26T08:56:08;15.50;58.30
336;DHT22;156;48.738;9.228;2022-10-26T08:58:39;15.50;56.80
336;DHT22;156;48.738;9.228;2022-10-26T09:01:09;15.50;56.60
336;DHT22;156;48.738;9.228;2022-10-26T09:03:36;15.50;61.40
336;DHT22;156;48.738;9.228;2022-10-26T09:06:11;15.60;56.70
336;DHT22;156;48.738;9.228;2022-10-26T09:08:48;15.60;57.20
336;DHT22;156;48.738;9.228;2022-10-26T09:11:27;15.70;58.30
336;DHT22;156;48.738;9.228;2022-10-26T09:14:04;15.80;58.30
336;DHT22;156;48.738;9.228;2022-10-26T09:16:40;15.80;57.50
336;DHT22;156;48.738;9.228;2022-10-26T09:19:41;15.80;58.00
336;DHT22;156;48.738;9.228;2022-10-26T09:22:18;16.00;50.20
336;DHT22;156;48.738;9.228;2022-10-26T09:24:51;16.00;51.90
336;DHT22;156;48.738;9.228;2022-10-26T09:27:23;16.00;49.20
336;DHT22;156;48.738;9.228;2022-10-26T09:29:53;16.00;49.30
336;DHT22;156;48.738;9.228;2022-10-26T09:32:24;16.10;47.00
336;DHT22;156;48.738;9.228;2022-10-26T09:34:54;16.10;45.00
336;DHT22;156;48.738;9.228;2022-10-26T09:37:24;16.20;43.20
336;DHT22;156;48.738;9.228;2022-10-26T09:39:57;16.30;39.90
336;DHT22;156;48.738;9.228;2022-10-26T09:42:32;16.50;36.90
336;DHT22;156;48.738;9.228;2022-10-26T09:45:05;16.60;33.10
336;DHT22;156;48.738;9.228;2022-10-26T09:47:38;16.60;33.20
336;DHT22;156;48.738;9.228;2022-10-26T09:50:17;16.70;26.10
336;DHT22;156;48.738;9.228;2022-10-26T09:52:46;16.70;22.30
336;DHT22;156;48.738;9.228;2022-10-26T09:55:13;16.90;24.80
336;DHT22;156;48.738;9.228;2022-10-26T09:57:44;17.00;22.50
336;DHT22;156;48.738;9.228;2022-10-26T10:00:13;16.90;20.80
336;DHT22;156;48.738;9.228;2022-10-26T10:02:41;17.10;19.90
336;DHT22;156;48.738;9.228;2022-10-26T10:05:21;17.20;20.00
336;DHT22;156;48.738;9.228;2022-10-26T10:07:48;17.40;15.40
336;DHT22;156;48.738;9.228;2022-10-26T10:10:17;17.40;16.60
336;DHT22;156;48.738;9.228;2022-10-26T10:12:46;17.40;13.80
336;DHT22;156;48.738;9.228;2022-10-26T10:15:20;17.40;14.50
336;DHT22;156;48.738;9.228;2022-10-26T10:17:48;17.50;15.30
336;DHT22;156;48.738;9.228;2022-10-26T10:20:20;17.40;14.60
336;DHT22;156;48.738;9.228;2022-10-26T10:22:55;17.70;15.20
336;DHT22;156;48.738;9.228;2022-10-26T10:25:30;17.70;14.60
336;DHT22;156;48.738;9.228;2022-10-26T10:27:59;17.80;10.80
336;DHT22;156;48.738;9.228;2022-10-26T10:30:29;17.80;10.50
336;DHT22;156;48.738;9.228;2022-10-26T10:33:06;17.90;6.20
336;DHT22;156;48.738;9.228;2022-10-26T10:35:34;18.00;6.40
336;DHT22;156;48.738;9.228;2022-10-26T10:38:01;18.00;5.40
336;DHT22;156;48.738;9.228;2022-10-26T10:40:30;18.10;1.00
336;DHT22;156;48.738;9.228;2022-10-26T10:43:11;18.20;1.00
336;DHT22;156;48.738;9.228;2022-10-26T10:45:39;18.50;1.00
336;DHT22;156;48.738;9.228;2022-10-26T10:48:14;18.60;1.00
336;DHT22;156;48.738;9.228;2022-10-26T10:50:51;18.90;1.00
336;DHT22;156;48.738;9.228;2022-10-26T10:53:20;19.00;1.00
336;DHT22;156;48.738;9.228;2022-10-26T10:56:00;19.00;1.00
336;DHT22;156;48.738;9.228;2022-10-26T10:58:38;19.10;1.00
336;DHT22;156;48.738;9.228;2022-10-26T11:01:12;19.20;1.00
336;DHT22;156;48.738;9.228;2022-10-26T11:03:48;19.40;1.00
336;DHT22;156;48.738;9.228;2022-10-26T11:06:21;19.30;1.00
336;DHT22;156;48.738;9.228;2022-10-26T11:08:49;19.30;1.00
336;DHT22;156;48.738;9.228;2022-10-26T11:11:20;19.20;1.00
336;DHT22;156;48.738;9.228;2022-10-26T11:13:54;19.30;1.00
336;DHT22;156;48.738;9.228;2022-10-26T11:16:27;19.30;1.00
336;DHT22;156;48.738;9.228;2022-10-26T11:18:59;19.50;1.00
336;DHT22;156;48.738;9.228;2022-10-26T11:21:28;19.60;1.00
336;DHT22;156;48.738;9.228;2022-10-26T11:24:03;19.70;1.00
336;DHT22;156;48.738;9.228;2022-10-26T11:26:40;19.50;1.00
336;DHT22;156;48.738;9.228;2022-10-26T11:29:19;19.60;1.00
336;DHT22;156;48.738;9.228;2022-10-26T11:31:51;19.50;1.00
336;DHT22;156;48.738;9.228;2022-10-26T11:34:25;19.70;1.00
336;DHT22;156;48.738;9.228;2022-10-26T11:36:57;19.60;1.00
336;DHT22;156;48.738;9.228;2022-10-26T11:39:33;19.60;1.00
336;DHT22;156;48.738;9.228;2022-10-26T11:42:08;19.90;1.00
336;DHT22;156;48.738;9.228;2022-10-26T11:44:41;19.50;1.00
336;DHT22;156;48.738;9.228;2022-10-26T11:47:13;19.50;1.00
336;DHT22;156;48.738;9.228;2022-10-26T11:49:45;19.50;1.00
336;DHT22;156;48.738;9.228;2022-10-26T11:52:17;19.60;1.00
336;DHT22;156;48.738;9.228;2022-10-26T11:54:47;19.70;1.00
336;DHT22;156;48.738;9.228;2022-10-26T11:57:16;19.90;1.00
336;DHT22;156;48.738;9.228;2022-10-26T11:59:48;20.00;1.00
336;DHT22;156;48.738;9.228;2022-10-26T12:02:18;20.10;1.00
336;DHT22;156;48.738;9.228;2022-10-26T12:04:48;20.30;1.00
336;DHT22;156;48.738;9.228;2022-10-26T12:07:22;20.70;1.00
336;DHT22;156;48.738;9.228;2022-10-26T12:09:50;20.80;1.00
336;DHT22;156;48.738;9.228;2022-10-26T12:12:22;20.70;1.00
336;DHT22;156;48.738;9.228;2022-10-26T12:14:58;20.40;1.00
336;DHT22;156;48.738;9.228;2022-10-26T12:17:30;20.50;1.00
336;DHT22;156;48.738;9.228;2022-10-26T12:20:05;20.40;1.00
336;DHT22;156;48.738;9.228;2022-10-26T12:22:38;20.20;1.00
336;DHT22;156;48.738;9.228;2022-10-26T12:25:17;19.90;1.00
336;DHT22;156;48.738;9.228;2022-10-26T12:27:52;19.90;1.00
336;DHT22;156;48.738;9.228;2022-10-26T12:30:27;19.90;1.00
336;DHT22;156;48.738;9.228;2022-10-26T12:32:56;19.80;1.00
336;DHT22;156;48.738;9.228;2022-10-26T12:35:37;19.90;1.00
336;DHT22;156;48.738;9.228;2022-10-26T12:41:25;20.00;1.00
336;DHT22;156;48.738;9.228;2022-10-26T12:44:10;20.00;1.00
336;DHT22;156;48.738;9.228;2022-10-26T12:46:51;20.30;1.00
336;DHT22;156;48.738;9.228;2022-10-26T12:52:38;20.60;1.00
336;DHT22;156;48.738;9.228;2022-10-26T12:55:29;20.90;1.00
336;DHT22;156;48.738;9.228;2022-10-26T12:58:18;20.90;1.00
336;DHT22;156;48.738;9.228;2022-10-26T13:01:07;21.10;1.00
336;DHT22;156;48.738;9.228;2022-10-26T13:03:43;21.20;1.00
336;DHT22;156;48.738;9.228;2022-10-26T13:06:30;21.40;1.00
336;DHT22;156;48.738;9.228;2022-10-26T13:09:07;21.50;1.00
336;DHT22;156;48.738;9.228;2022-10-26T13:11:44;21.40;1.00
336;DHT22;156;48.738;9.228;2022-10-26T13:14:19;21.10;1.00
336;DHT22;156;48.738;9.228;2022-10-26T13:16:47;21.00;1.00
336;DHT22;156;48.738;9.228;2022-10-26T13:19:29;20.70;1.00
336;DHT22;156;48.738;9.228;2022-10-26T13:21:58;20.90;1.00
336;DHT22;156;48.738;9.228;2022-10-26T13:24:28;21.00;1.00
336;DHT22;156;48.738;9.228;2022-10-26T13:27:23;21.50;1.00
336;DHT22;156;48.738;9.228;2022-10-26T13:30:20;22.50;1.00
336;DHT22;156;48.738;9.228;2022-10-26T13:32:53;23.50;1.00
336;DHT22;156;48.738;9.228;2022-10-26T13:35:23;24.00;1.00
336;DHT22;156;48.738;9.228;2022-10-26T13:37:53;24.00;1.00
336;DHT22;156;48.738;9.228;2022-10-26T13:40:22;23.80;1.00
336;DHT22;156;48.738;9.228;2022-10-26T13:42:52;23.60;1.00
336;DHT22;156;48.738;9.228;2022-10-26T13:45:23;24.50;1.00
336;DHT22;156;48.738;9.228;2022-10-26T13:47:55;24.50;1.00
336;DHT22;156;48.738;9.228;2022-10-26T13:50:26;24.70;1.00
336;DHT22;156;48.738;9.228;2022-10-26T13:52:55;24.90;1.00
336;DHT22;156;48.738;9.228;2022-10-26T13:55:27;24.60;1.00
336;DHT22;156;48.738;9.228;2022-10-26T13:58:07;24.40;1.00
336;DHT22;156;48.738;9.228;2022-10-26T14:00:35;24.80;1.00
336;DHT22;156;48.738;9.228;2022-10-26T14:03:11;25.20;1.00
336;DHT22;156;48.738;9.228;2022-10-26T14:05:43;25.60;1.00
336;DHT22;156;48.738;9.228;2022-10-26T14:08:15;25.60;1.00
336;DHT22;156;48.738;9.228;2022-10-26T14:10:46;25.50;1.00
336;DHT22;156;48.738;9.228;2022-10-26T14:13:21;25.10;1.00
336;DHT22;156;48.738;9.228;2022-10-26T14:15:49;25.00;1.00
336;DHT22;156;48.738;9.228;2022-10-26T14:18:19;25.00;1.00
336;DHT22;156;48.738;9.228;2022-10-26T14:20:53;25.00;1.00
336;DHT22;156;48.738;9.228;2022-10-26T14:23:33;24.50;1.00
336;DHT22;156;48.738;9.228;2022-10-26T14:26:00;24.00;1.00
336;DHT22;156;48.738;9.228;2022-10-26T14:28:29;24.00;1.00
336;DHT22;156;48.738;9.228;2022-10-26T14:31:10;24.40;1.00
336;DHT22;156;48.738;9.228;2022-10-26T14:33:37;23.90;1.00
336;DHT22;156;48.738;9.228;2022-10-26T14:36:06;23.60;1.00
336;DHT22;156;48.738;9.228;2022-10-26T14:38:41;22.80;1.00
336;DHT22;156;48.738;9.228;2022-10-26T14:41:09;22.50;1.00
336;DHT22;156;48.738;9.228;2022-10-26T14:43:37;22.50;1.00
336;DHT22;156;48.738;9.228;2022-10-26T14:46:05;22.00;1.00
336;DHT22;156;48.738;9.228;2022-10-26T14:48:33;21.80;1.00
336;DHT22;156;48.738;9.228;2022-10-26T14:51:03;21.30;1.00
336;DHT22;156;48.738;9.228;2022-10-26T14:53:37;21.30;1.00
336;DHT22;156;48.738;9.228;2022-10-26T14:56:17;21.20;1.00
336;DHT22;156;48.738;9.228;2022-10-26T14:58:45;21.10;1.00
336;DHT22;156;48.738;9.228;2022-10-26T15:01:29;21.10;1.00
336;DHT22;156;48.738;9.228;2022-10-26T15:03:58;21.10;1.00
336;DHT22;156;48.738;9.228;2022-10-26T15:06:43;21.10;1.00
336;DHT22;156;48.738;9.228;2022-10-26T15:09:30;21.10;1.00
336;DHT22;156;48.738;9.228;2022-10-26T15:11:57;21.20;1.00
336;DHT22;156;48.738;9.228;2022-10-26T15:14:24;21.20;1.00
336;DHT22;156;48.738;9.228;2022-10-26T15:16:54;21.20;1.00
336;DHT22;156;48.738;9.228;2022-10-26T15:19:22;21.30;1.00
336;DHT22;156;48.738;9.228;2022-10-26T15:21:51;21.20;1.00
336;DHT22;156;48.738;9.228;2022-10-26T15:24:34;21.30;1.00
336;DHT22;156;48.738;9.228;2022-10-26T15:27:02;21.20;1.00
336;DHT22;156;48.738;9.228;2022-10-26T15:29:34;21.10;1.00
336;DHT22;156;48.738;9.228;2022-10-26T15:32:02;21.00;1.00
336;DHT22;156;48.738;9.228;2022-10-26T15:34:29;20.90;1.00
336;DHT22;156;48.738;9.228;2022-10-26T15:36:56;20.90;1.00
336;DHT22;156;48.738;9.228;2022-10-26T15:39:24;20.80;1.00
336;DHT22;156;48.738;9.228;2022-10-26T15:41:53;20.70;1.00
336;DHT22;156;48.738;9.228;2022-10-26T15:44:21;20.70;1.00
336;DHT22;156;48.738;9.228;2022-10-26T15:46:48;20.70;1.00
336;DHT22;156;48.738;9.228;2022-10-26T15:49:16;20.50;1.00
336;DHT22;156;48.738;9.228;2022-10-26T15:51:45;20.40;1.00
336;DHT22;156;48.738;9.228;2022-10-26T15:54:14;20.30;1.00
336;DHT22;156;48.738;9.228;2022-10-26T15:56:43;20.30;1.00
336;DHT22;156;48.738;9.228;2022-10-26T15:59:14;20.30;1.00
336;DHT22;156;48.738;9.228;2022-10-26T16:01:41;20.30;1.00
336;DHT22;156;48.738;9.228;2022-10-26T16:04:09;20.20;1.00
336;DHT22;156;48.738;9.228;2022-10-26T16:06:41;20.10;1.00
336;DHT22;156;48.738;9.228;2022-10-26T16:09:15;20.00;1.00
336;DHT22;156;48.738;9.228;2022-10-26T16:11:44;19.90;1.00
336;DHT22;156;48.738;9.228;2022-10-26T16:14:12;19.80;1.00
336;DHT22;156;48.738;9.228;2022-10-26T16:16:39;19.80;1.00
336;DHT22;156;48.738;9.228;2022-10-26T16:19:09;19.80;1.00
336;DHT22;156;48.738;9.228;2022-10-26T16:21:36;19.80;1.00
336;DHT22;156;48.738;9.228;2022-10-26T16:24:06;19.70;1.00
336;DHT22;156;48.738;9.228;2022-10-26T16:26:33;19.70;1.00
336;DHT22;156;48.738;9.228;2022-10-26T16:29:00;19.60;1.00
336;DHT22;156;48.738;9.228;2022-10-26T16:31:28;19.50;1.00
336;DHT22;156;48.738;9.228;2022-10-26T16:33:55;19.50;1.00
336;DHT22;156;48.738;9.228;2022-10-26T16:36:21;19.40;1.00
336;DHT22;156;48.738;9.228;2022-10-26T16:38:48;19.40;1.00
336;DHT22;156;48.738;9.228;2022-10-26T16:41:17;19.40;1.00
336;DHT22;156;48.738;9.228;2022-10-26T16:43:45;19.30;1.00
336;DHT22;156;48.738;9.228;2022-10-26T16:46:14;19.30;1.00
336;DHT22;156;48.738;9.228;2022-10-26T16:48:43;19.30;1.00
336;DHT22;156;48.738;9.228;2022-10-26T16:51:12;19.20;1.00
336;DHT22;156;48.738;9.228;2022-10-26T16:53:39;19.10;1.00
336;DHT22;156;48.738;9.228;2022-10-26T16:56:10;19.10;1.00
336;DHT22;156;48.738;9.228;2022-10-26T16:58:38;19.10;1.00
336;DHT22;156;48.738;9.228;2022-10-26T17:01:06;19.10;1.00
336;DHT22;156;48.738;9.228;2022-10-26T17:03:34;19.00;1.00
336;DHT22;156;48.738;9.228;2022-10-26T17:06:04;18.90;1.00
336;DHT22;156;48.738;9.228;2022-10-26T17:08:33;18.90;1.00
336;DHT22;156;48.738;9.228;2022-10-26T17:11:02;18.90;1.00
336;DHT22;156;48.738;9.228;2022-10-26T17:13:30;18.80;1.00
336;DHT22;156;48.738;9.228;2022-10-26T17:16:00;18.80;1.00